sensor_id;sensor_type;location;lat;lon;timestamp;temperature;humidity
14577;DHT22;7375;46.072;14.470;2022-12-20T00:00:47;29.30;35.00
14577;DHT22;7375;46.072;14.470;2022-12-20T00:03:14;29.30;34.80
14577;DHT22;7375;46.072;14.470;2022-12-20T00:05:41;29.20;34.90
14577;DHT22;7375;46.072;14.470;2022-12-20T00:08:10;29.20;34.90
14577;DHT22;7375;46.072;14.470;2022-12-20T00:10:40;29.30;34.80
14577;DHT22;7375;46.072;14.470;2022-12-20T00:13:12;29.30;34.80
14577;DHT22;7375;46.072;14.470;2022-12-20T00:15:39;29.30;34.80
14577;DHT22;7375;46.072;14.470;2022-12-20T00:18:05;29.30;34.80
14577;DHT22;7375;46.072;14.470;2022-12-20T00:20:32;29.30;34.60
14577;DHT22;7375;46.072;14.470;2022-12-20T00:22:59;29.40;34.80
14577;DHT22;7375;46.072;14.470;2022-12-20T00:25:27;29.30;34.70
14577;DHT22;7375;46.072;14.470;2022-12-20T00:27:54;29.40;34.60
14577;DHT22;7375;46.072;14.470;2022-12-20T00:30:21;29.40;34.60
14577;DHT22;7375;46.072;14.470;2022-12-20T00:32:48;29.40;34.60
14577;DHT22;7375;46.072;14.470;2022-12-20T00:35:17;29.40;34.60
14577;DHT22;7375;46.072;14.470;2022-12-20T00:37:43;29.40;34.70
14577;DHT22;7375;46.072;14.470;2022-12-20T00:40:10;29.40;34.90
14577;DHT22;7375;46.072;14.470;2022-12-20T00:42:38;29.40;34.80
14577;DHT22;7375;46.072;14.470;2022-12-20T00:45:06;29.40;34.70
14577;DHT22;7375;46.072;14.470;2022-12-20T00:47:33;29.40;34.60
14577;DHT22;7375;46.072;14.470;2022-12-20T00:50:00;29.50;34.60
14577;DHT22;7375;46.072;14.470;2022-12-20T00:52:26;29.60;34.50
14577;DHT22;7375;46.072;14.470;2022-12-20T00:54:53;29.50;34.50
14577;DHT22;7375;46.072;14.470;2022-12-20T00:57:20;29.50;34.50
14577;DHT22;7375;46.072;14.470;2022-12-20T00:59:48;29.50;34.60
14577;DHT22;7375;46.072;14.470;2022-12-20T01:02:14;29.50;34.40
14577;DHT22;7375;46.072;14.470;2022-12-20T01:04:41;29.60;34.50
14577;DHT22;7375;46.072;14.470;2022-12-20T01:07:08;29.60;34.50
14577;DHT22;7375;46.072;14.470;2022-12-20T01:09:35;29.50;34.60
14577;DHT22;7375;46.072;14.470;2022-12-20T01:12:02;29.50;34.60
14577;DHT22;7375;46.072;14.470;2022-12-20T01:14:29;29.40;34.60
14577;DHT22;7375;46.072;14.470;2022-12-20T01:16:57;29.60;34.70
14577;DHT22;7375;46.072;14.470;2022-12-20T01:19:24;29.50;34.70
14577;DHT22;7375;46.072;14.470;2022-12-20T01:21:51;29.40;34.80
14577;DHT22;7375;46.072;14.470;2022-12-20T01:24:18;29.40;35.10
14577;DHT22;7375;46.072;14.470;2022-12-20T01:26:45;29.50;35.10
14577;DHT22;7375;46.072;14.470;2022-12-20T01:29:14;29.50;35.00
14577;DHT22;7375;46.072;14.470;2022-12-20T01:31:41;29.50;35.10
14577;DHT22;7375;46.072;14.470;2022-12-20T01:34:09;29.50;35.10
14577;DHT22;7375;46.072;14.470;2022-12-20T01:36:36;29.50;35.20
14577;DHT22;7375;46.072;14.470;2022-12-20T01:39:04;29.50;35.10
14577;DHT22;7375;46.072;14.470;2022-12-20T01:41:33;29.60;35.00
14577;DHT22;7375;46.072;14.470;2022-12-20T01:44:00;29.50;35.10
14577;DHT22;7375;46.072;14.470;2022-12-20T01:46:28;29.60;35.10
14577;DHT22;7375;46.072;14.470;2022-12-20T01:48:57;29.60;35.00
14577;DHT22;7375;46.072;14.470;2022-12-20T01:51:26;29.40;35.20
14577;DHT22;7375;46.072;14.470;2022-12-20T01:53:55;29.50;35.00
14577;DHT22;7375;46.072;14.470;2022-12-20T01:56:23;29.60;35.00
14577;DHT22;7375;46.072;14.470;2022-12-20T01:58:50;29.60;34.90
14577;DHT22;7375;46.072;14.470;2022-12-20T02:01:19;29.50;35.00
14577;DHT22;7375;46.072;14.470;2022-12-20T02:03:49;29.50;35.10
14577;DHT22;7375;46.072;14.470;2022-12-20T02:06:17;29.50;35.20
14577;DHT22;7375;46.072;14.470;2022-12-20T02:08:46;29.50;35.20
14577;DHT22;7375;46.072;14.470;2022-12-20T02:11:17;29.60;35.10
14577;DHT22;7375;46.072;14.470;2022-12-20T02:13:49;29.40;35.20
14577;DHT22;7375;46.072;14.470;2022-12-20T02:16:19;29.50;35.10
14577;DHT22;7375;46.072;14.470;2022-12-20T02:18:48;29.50;35.10
14577;DHT22;7375;46.072;14.470;2022-12-20T02:21:26;29.50;35.30
14577;DHT22;7375;46.072;14.470;2022-12-20T02:24:07;29.60;35.20
14577;DHT22;7375;46.072;14.470;2022-12-20T02:26:42;29.60;35.00
14577;DHT22;7375;46.072;14.470;2022-12-20T02:29:20;29.40;35.20
14577;DHT22;7375;46.072;14.470;2022-12-20T02:31:50;29.40;35.20
14577;DHT22;7375;46.072;14.470;2022-12-20T02:34:20;29.50;35.20
14577;DHT22;7375;46.072;14.470;2022-12-20T02:36:49;29.40;35.50
14577;DHT22;7375;46.072;14.470;2022-12-20T02:39:16;29.40;35.10
14577;DHT22;7375;46.072;14.470;2022-12-20T02:41:43;29.40;35.20
14577;DHT22;7375;46.072;14.470;2022-12-20T02:44:12;29.50;35.30
14577;DHT22;7375;46.072;14.470;2022-12-20T02:46:59;29.50;35.20
14577;DHT22;7375;46.072;14.470;2022-12-20T02:49:26;29.50;35.10
14577;DHT22;7375;46.072;14.470;2022-12-20T02:51:53;29.50;35.10
14577;DHT22;7375;46.072;14.470;2022-12-20T02:54:21;29.60;35.20
14577;DHT22;7375;46.072;14.470;2022-12-20T02:56:49;29.60;35.20
14577;DHT22;7375;46.072;14.470;2022-12-20T02:59:19;29.60;35.00
14577;DHT22;7375;46.072;14.470;2022-12-20T03:01:47;29.60;35.00
14577;DHT22;7375;46.072;14.470;2022-12-20T03:04:16;29.60;35.10
14577;DHT22;7375;46.072;14.470;2022-12-20T03:06:54;29.50;35.30
14577;DHT22;7375;46.072;14.470;2022-12-20T03:09:21;29.50;35.30
14577;DHT22;7375;46.072;14.470;2022-12-20T03:11:47;29.50;35.40
14577;DHT22;7375;46.072;14.470;2022-12-20T03:14:17;29.60;35.30
14577;DHT22;7375;46.072;14.470;2022-12-20T03:16:43;29.60;35.10
14577;DHT22;7375;46.072;14.470;2022-12-20T03:19:10;29.70;35.20
14577;DHT22;7375;46.072;14.470;2022-12-20T03:21:38;29.60;35.10
14577;DHT22;7375;46.072;14.470;2022-12-20T03:24:05;29.50;35.30
14577;DHT22;7375;46.072;14.470;2022-12-20T03:26:32;29.50;35.50
14577;DHT22;7375;46.072;14.470;2022-12-20T03:28:58;29.60;35.30
14577;DHT22;7375;46.072;14.470;2022-12-20T03:31:25;29.60;35.30
14577;DHT22;7375;46.072;14.470;2022-12-20T03:33:52;29.50;35.30
14577;DHT22;7375;46.072;14.470;2022-12-20T03:36:19;29.50;35.30
14577;DHT22;7375;46.072;14.470;2022-12-20T03:38:49;29.40;35.20
14577;DHT22;7375;46.072;14.470;2022-12-20T03:41:16;29.50;35.30
14577;DHT22;7375;46.072;14.470;2022-12-20T03:43:42;29.40;35.40
14577;DHT22;7375;46.072;14.470;2022-12-20T03:46:09;29.50;35.30
14577;DHT22;7375;46.072;14.470;2022-12-20T03:48:36;29.50;35.30
14577;DHT22;7375;46.072;14.470;2022-12-20T03:51:02;29.50;35.10
14577;DHT22;7375;46.072;14.470;2022-12-20T03:53:29;29.50;35.30
14577;DHT22;7375;46.072;14.470;2022-12-20T03:55:57;29.40;35.30
14577;DHT22;7375;46.072;14.470;2022-12-20T03:58:24;29.30;35.50
14577;DHT22;7375;46.072;14.470;2022-12-20T04:00:51;29.20;35.60
14577;DHT22;7375;46.072;14.470;2022-12-20T04:03:18;29.10;35.70
14577;DHT22;7375;46.072;14.470;2022-12-20T04:05:44;29.10;35.80
14577;DHT22;7375;46.072;14.470;2022-12-20T04:08:11;29.10;35.70
14577;DHT22;7375;46.072;14.470;2022-12-20T04:10:38;29.10;35.60
14577;DHT22;7375;46.072;14.470;2022-12-20T04:13:20;29.10;35.70
14577;DHT22;7375;46.072;14.470;2022-12-20T04:15:46;29.20;35.70
14577;DHT22;7375;46.072;14.470;2022-12-20T04:18:13;29.10;35.50
14577;DHT22;7375;46.072;14.470;2022-12-20T04:20:40;29.10;35.70
14577;DHT22;7375;46.072;14.470;2022-12-20T04:23:06;29.20;35.60
14577;DHT22;7375;46.072;14.470;2022-12-20T04:25:33;29.10;35.60
14577;DHT22;7375;46.072;14.470;2022-12-20T04:28:00;29.20;35.50
14577;DHT22;7375;46.072;14.470;2022-12-20T04:30:28;29.30;35.50
14577;DHT22;7375;46.072;14.470;2022-12-20T04:32:55;29.60;35.10
14577;DHT22;7375;46.072;14.470;2022-12-20T04:35:21;29.80;35.00
14577;DHT22;7375;46.072;14.470;2022-12-20T04:37:48;29.90;34.70
14577;DHT22;7375;46.072;14.470;2022-12-20T04:40:15;30.00;34.50
14577;DHT22;7375;46.072;14.470;2022-12-20T04:42:41;30.10;34.30
14577;DHT22;7375;46.072;14.470;2022-12-20T04:45:08;30.20;34.20
14577;DHT22;7375;46.072;14.470;2022-12-20T04:47:37;30.40;34.00
14577;DHT22;7375;46.072;14.470;2022-12-20T04:50:04;30.40;34.10
14577;DHT22;7375;46.072;14.470;2022-12-20T04:52:31;30.40;34.00
14577;DHT22;7375;46.072;14.470;2022-12-20T04:55:15;30.40;34.00
14577;DHT22;7375;46.072;14.470;2022-12-20T04:57:42;30.60;33.70
14577;DHT22;7375;46.072;14.470;2022-12-20T05:00:09;30.60;33.70
14577;DHT22;7375;46.072;14.470;2022-12-20T05:02:37;30.50;33.60
14577;DHT22;7375;46.072;14.470;2022-12-20T05:05:04;30.50;33.70
14577;DHT22;7375;46.072;14.470;2022-12-20T05:07:31;30.50;33.50
14577;DHT22;7375;46.072;14.470;2022-12-20T05:09:57;30.50;33.50
14577;DHT22;7375;46.072;14.470;2022-12-20T05:12:24;30.50;33.60
14577;DHT22;7375;46.072;14.470;2022-12-20T05:14:51;30.60;33.40
14577;DHT22;7375;46.072;14.470;2022-12-20T05:17:17;30.50;33.60
14577;DHT22;7375;46.072;14.470;2022-12-20T05:19:45;30.50;33.40
14577;DHT22;7375;46.072;14.470;2022-12-20T05:22:12;30.50;33.50
14577;DHT22;7375;46.072;14.470;2022-12-20T05:24:56;30.40;33.60
14577;DHT22;7375;46.072;14.470;2022-12-20T05:27:40;30.50;33.50
14577;DHT22;7375;46.072;14.470;2022-12-20T05:30:07;30.50;33.40
14577;DHT22;7375;46.072;14.470;2022-12-20T05:32:34;30.50;33.50
14577;DHT22;7375;46.072;14.470;2022-12-20T05:35:02;30.50;33.30
14577;DHT22;7375;46.072;14.470;2022-12-20T05:37:31;30.50;33.40
14577;DHT22;7375;46.072;14.470;2022-12-20T05:39:57;30.40;33.50
14577;DHT22;7375;46.072;14.470;2022-12-20T05:42:24;30.50;33.30
14577;DHT22;7375;46.072;14.470;2022-12-20T05:44:51;30.50;33.50
14577;DHT22;7375;46.072;14.470;2022-12-20T05:47:17;30.50;33.40
14577;DHT22;7375;46.072;14.470;2022-12-20T05:49:44;30.50;33.20
14577;DHT22;7375;46.072;14.470;2022-12-20T05:52:12;30.50;33.30
14577;DHT22;7375;46.072;14.470;2022-12-20T05:54:39;30.40;33.50
14577;DHT22;7375;46.072;14.470;2022-12-20T05:57:06;30.60;33.30
14577;DHT22;7375;46.072;14.470;2022-12-20T05:59:32;30.50;33.30
14577;DHT22;7375;46.072;14.470;2022-12-20T06:01:59;30.40;33.50
14577;DHT22;7375;46.072;14.470;2022-12-20T06:04:26;30.40;33.30
14577;DHT22;7375;46.072;14.470;2022-12-20T06:06:52;30.50;33.20
14577;DHT22;7375;46.072;14.470;2022-12-20T06:09:21;30.50;33.10
14577;DHT22;7375;46.072;14.470;2022-12-20T06:11:47;30.60;33.20
14577;DHT22;7375;46.072;14.470;2022-12-20T06:14:14;30.70;33.10
14577;DHT22;7375;46.072;14.470;2022-12-20T06:16:41;30.70;32.90
14577;DHT22;7375;46.072;14.470;2022-12-20T06:19:07;30.80;33.00
14577;DHT22;7375;46.072;14.470;2022-12-20T06:21:34;30.90;32.80
14577;DHT22;7375;46.072;14.470;2022-12-20T06:24:01;30.70;33.20
14577;DHT22;7375;46.072;14.470;2022-12-20T06:26:29;30.70;33.20
14577;DHT22;7375;46.072;14.470;2022-12-20T06:29:00;30.70;33.00
14577;DHT22;7375;46.072;14.470;2022-12-20T06:31:27;30.70;33.00
14577;DHT22;7375;46.072;14.470;2022-12-20T06:33:53;30.80;33.10
14577;DHT22;7375;46.072;14.470;2022-12-20T06:36:20;30.80;33.00
14577;DHT22;7375;46.072;14.470;2022-12-20T06:38:47;30.70;33.10
14577;DHT22;7375;46.072;14.470;2022-12-20T06:41:14;30.70;33.20
14577;DHT22;7375;46.072;14.470;2022-12-20T06:43:42;30.80;33.30
14577;DHT22;7375;46.072;14.470;2022-12-20T06:46:08;30.80;33.30
14577;DHT22;7375;46.072;14.470;2022-12-20T06:48:35;30.70;33.30
14577;DHT22;7375;46.072;14.470;2022-12-20T06:51:02;30.80;33.40
14577;DHT22;7375;46.072;14.470;2022-12-20T06:53:28;30.80;33.50
14577;DHT22;7375;46.072;14.470;2022-12-20T06:55:55;30.80;33.60
14577;DHT22;7375;46.072;14.470;2022-12-20T06:58:22;30.70;33.90
14577;DHT22;7375;46.072;14.470;2022-12-20T07:00:50;30.70;33.80
14577;DHT22;7375;46.072;14.470;2022-12-20T07:03:18;30.70;34.00
14577;DHT22;7375;46.072;14.470;2022-12-20T07:05:49;30.70;33.90
14577;DHT22;7375;46.072;14.470;2022-12-20T07:08:16;30.70;33.40
14577;DHT22;7375;46.072;14.470;2022-12-20T07:10:43;30.50;33.10
14577;DHT22;7375;46.072;14.470;2022-12-20T07:13:10;30.50;33.20
14577;DHT22;7375;46.072;14.470;2022-12-20T07:15:37;30.40;33.40
14577;DHT22;7375;46.072;14.470;2022-12-20T07:18:05;30.50;33.50
14577;DHT22;7375;46.072;14.470;2022-12-20T07:20:32;30.50;33.20
14577;DHT22;7375;46.072;14.470;2022-12-20T07:23:09;30.50;33.40
14577;DHT22;7375;46.072;14.470;2022-12-20T07:25:35;30.60;33.30
14577;DHT22;7375;46.072;14.470;2022-12-20T07:28:02;30.60;33.10
14577;DHT22;7375;46.072;14.470;2022-12-20T07:30:29;30.50;33.30
14577;DHT22;7375;46.072;14.470;2022-12-20T07:32:56;30.60;33.40
14577;DHT22;7375;46.072;14.470;2022-12-20T07:35:24;30.70;33.30
14577;DHT22;7375;46.072;14.470;2022-12-20T07:37:51;30.70;33.20
14577;DHT22;7375;46.072;14.470;2022-12-20T07:40:18;30.60;33.30
14577;DHT22;7375;46.072;14.470;2022-12-20T07:42:46;30.60;33.50
14577;DHT22;7375;46.072;14.470;2022-12-20T07:45:16;30.60;33.40
14577;DHT22;7375;46.072;14.470;2022-12-20T07:47:43;30.60;33.30
14577;DHT22;7375;46.072;14.470;2022-12-20T07:50:09;30.50;33.30
14577;DHT22;7375;46.072;14.470;2022-12-20T07:52:38;30.50;33.50
14577;DHT22;7375;46.072;14.470;2022-12-20T07:55:06;30.50;33.50
14577;DHT22;7375;46.072;14.470;2022-12-20T07:57:33;30.60;33.30
14577;DHT22;7375;46.072;14.470;2022-12-20T08:00:01;29.80;30.80
14577;DHT22;7375;46.072;14.470;2022-12-20T08:02:29;28.40;27.90
14577;DHT22;7375;46.072;14.470;2022-12-20T08:04:57;27.80;27.00
14577;DHT22;7375;46.072;14.470;2022-12-20T08:07:25;27.20;25.40
14577;DHT22;7375;46.072;14.470;2022-12-20T08:09:54;27.40;25.80
14577;DHT22;7375;46.072;14.470;2022-12-20T08:12:21;27.50;27.00
14577;DHT22;7375;46.072;14.470;2022-12-20T08:14:48;27.70;28.60
14577;DHT22;7375;46.072;14.470;2022-12-20T08:17:16;28.30;29.10
14577;DHT22;7375;46.072;14.470;2022-12-20T08:19:43;29.00;29.40
14577;DHT22;7375;46.072;14.470;2022-12-20T08:22:10;29.20;30.00
14577;DHT22;7375;46.072;14.470;2022-12-20T08:24:36;29.40;30.20
14577;DHT22;7375;46.072;14.470;2022-12-20T08:27:05;29.60;30.50
14577;DHT22;7375;46.072;14.470;2022-12-20T08:29:32;29.50;30.60
14577;DHT22;7375;46.072;14.470;2022-12-20T08:31:58;29.60;31.20
14577;DHT22;7375;46.072;14.470;2022-12-20T08:34:25;29.60;31.30
14577;DHT22;7375;46.072;14.470;2022-12-20T08:36:52;29.60;31.50
14577;DHT22;7375;46.072;14.470;2022-12-20T08:39:18;29.70;31.60
14577;DHT22;7375;46.072;14.470;2022-12-20T08:41:45;29.80;31.40
14577;DHT22;7375;46.072;14.470;2022-12-20T08:44:13;29.80;31.60
14577;DHT22;7375;46.072;14.470;2022-12-20T08:46:40;29.90;31.70
14577;DHT22;7375;46.072;14.470;2022-12-20T08:49:07;29.90;32.00
14577;DHT22;7375;46.072;14.470;2022-12-20T08:51:33;30.00;31.90
14577;DHT22;7375;46.072;14.470;2022-12-20T08:54:00;30.00;32.20
14577;DHT22;7375;46.072;14.470;2022-12-20T08:56:28;30.10;32.00
14577;DHT22;7375;46.072;14.470;2022-12-20T08:58:54;30.00;32.30
14577;DHT22;7375;46.072;14.470;2022-12-20T09:01:23;30.20;32.40
14577;DHT22;7375;46.072;14.470;2022-12-20T09:03:51;30.20;32.50
14577;DHT22;7375;46.072;14.470;2022-12-20T09:06:19;30.20;32.30
14577;DHT22;7375;46.072;14.470;2022-12-20T09:08:48;30.20;32.60
14577;DHT22;7375;46.072;14.470;2022-12-20T09:11:16;30.00;32.70
14577;DHT22;7375;46.072;14.470;2022-12-20T09:13:43;30.10;32.60
14577;DHT22;7375;46.072;14.470;2022-12-20T09:16:11;30.20;32.70
14577;DHT22;7375;46.072;14.470;2022-12-20T09:18:39;30.00;32.90
14577;DHT22;7375;46.072;14.470;2022-12-20T09:21:07;30.10;32.70
14577;DHT22;7375;46.072;14.470;2022-12-20T09:23:34;30.10;32.70
14577;DHT22;7375;46.072;14.470;2022-12-20T09:26:01;30.10;32.70
14577;DHT22;7375;46.072;14.470;2022-12-20T09:28:32;30.00;32.90
14577;DHT22;7375;46.072;14.470;2022-12-20T09:30:59;30.10;33.00
14577;DHT22;7375;46.072;14.470;2022-12-20T09:33:26;30.20;32.70
14577;DHT22;7375;46.072;14.470;2022-12-20T09:36:05;30.30;32.70
14577;DHT22;7375;46.072;14.470;2022-12-20T09:38:32;30.50;32.70
14577;DHT22;7375;46.072;14.470;2022-12-20T09:41:02;30.50;32.80
14577;DHT22;7375;46.072;14.470;2022-12-20T09:43:29;30.20;32.90
14577;DHT22;7375;46.072;14.470;2022-12-20T09:46:09;30.10;33.20
14577;DHT22;7375;46.072;14.470;2022-12-20T09:48:51;30.00;33.30
14577;DHT22;7375;46.072;14.470;2022-12-20T09:51:40;30.00;33.20
14577;DHT22;7375;46.072;14.470;2022-12-20T09:54:15;30.00;33.30
14577;DHT22;7375;46.072;14.470;2022-12-20T09:56:57;30.00;33.50
14577;DHT22;7375;46.072;14.470;2022-12-20T09:59:25;30.20;33.20
14577;DHT22;7375;46.072;14.470;2022-12-20T10:01:53;30.20;33.30
14577;DHT22;7375;46.072;14.470;2022-12-20T10:04:25;30.20;33.40
14577;DHT22;7375;46.072;14.470;2022-12-20T10:06:58;30.30;33.20
14577;DHT22;7375;46.072;14.470;2022-12-20T10:12:18;30.20;33.40
14577;DHT22;7375;46.072;14.470;2022-12-20T10:14:51;30.30;33.40
14577;DHT22;7375;46.072;14.470;2022-12-20T10:17:24;30.20;33.50
14577;DHT22;7375;46.072;14.470;2022-12-20T10:22:39;30.20;33.50
14577;DHT22;7375;46.072;14.470;2022-12-20T10:25:12;30.30;33.10
14577;DHT22;7375;46.072;14.470;2022-12-20T10:27:39;30.30;33.20
14577;DHT22;7375;46.072;14.470;2022-12-20T10:30:10;30.20;33.10
14577;DHT22;7375;46.072;14.470;2022-12-20T10:32:36;29.80;33.30
14577;DHT22;7375;46.072;14.470;2022-12-20T10:35:14;29.70;34.00
14577;DHT22;7375;46.072;14.470;2022-12-20T10:37:45;29.20;34.60
14577;DHT22;7375;46.072;14.470;2022-12-20T10:40:24;28.90;35.20
14577;DHT22;7375;46.072;14.470;2022-12-20T10:42:51;28.70;35.30
14577;DHT22;7375;46.072;14.470;2022-12-20T10:45:24;28.40;35.80
14577;DHT22;7375;46.072;14.470;2022-12-20T10:47:57;28.30;36.00
14577;DHT22;7375;46.072;14.470;2022-12-20T10:50:24;28.20;36.10
14577;DHT22;7375;46.072;14.470;2022-12-20T10:53:17;28.00;36.40
14577;DHT22;7375;46.072;14.470;2022-12-20T10:55:45;27.90;36.50
14577;DHT22;7375;46.072;14.470;2022-12-20T10:58:13;27.60;36.80
14577;DHT22;7375;46.072;14.470;2022-12-20T11:00:40;27.50;36.90
14577;DHT22;7375;46.072;14.470;2022-12-20T11:03:13;27.30;37.50
14577;DHT22;7375;46.072;14.470;2022-12-20T11:05:48;27.10;37.50
14577;DHT22;7375;46.072;14.470;2022-12-20T11:08:21;26.90;37.80
14577;DHT22;7375;46.072;14.470;2022-12-20T11:10:48;26.70;38.00
14577;DHT22;7375;46.072;14.470;2022-12-20T11:13:19;26.60;38.20
14577;DHT22;7375;46.072;14.470;2022-12-20T11:15:47;26.40;38.40
14577;DHT22;7375;46.072;14.470;2022-12-20T11:18:15;26.20;38.70
14577;DHT22;7375;46.072;14.470;2022-12-20T11:20:46;26.10;39.00
14577;DHT22;7375;46.072;14.470;2022-12-20T11:23:17;26.00;39.50
14577;DHT22;7375;46.072;14.470;2022-12-20T11:25:52;25.90;40.10
14577;DHT22;7375;46.072;14.470;2022-12-20T11:28:33;25.80;39.60
14577;DHT22;7375;46.072;14.470;2022-12-20T11:31:06;25.60;39.90
14577;DHT22;7375;46.072;14.470;2022-12-20T11:33:51;25.50;40.30
14577;DHT22;7375;46.072;14.470;2022-12-20T11:36:23;25.40;40.60
14577;DHT22;7375;46.072;14.470;2022-12-20T11:38:57;25.30;40.80
14577;DHT22;7375;46.072;14.470;2022-12-20T11:41:28;25.10;41.00
14577;DHT22;7375;46.072;14.470;2022-12-20T11:44:01;25.00;41.20
14577;DHT22;7375;46.072;14.470;2022-12-20T11:46:35;24.90;41.40
14577;DHT22;7375;46.072;14.470;2022-12-20T11:51:50;24.70;42.00
14577;DHT22;7375;46.072;14.470;2022-12-20T11:54:20;24.60;42.10
14577;DHT22;7375;46.072;14.470;2022-12-20T11:56:51;24.50;42.10
14577;DHT22;7375;46.072;14.470;2022-12-20T11:59:22;24.40;42.30
14577;DHT22;7375;46.072;14.470;2022-12-20T12:01:52;24.30;42.40
14577;DHT22;7375;46.072;14.470;2022-12-20T12:04:21;24.20;42.50
14577;DHT22;7375;46.072;14.470;2022-12-20T12:06:55;24.20;42.70
14577;DHT22;7375;46.072;14.470;2022-12-20T12:09:23;24.10;42.80
14577;DHT22;7375;46.072;14.470;2022-12-20T12:11:52;24.10;43.00
14577;DHT22;7375;46.072;14.470;2022-12-20T12:14:34;24.00;43.10
14577;DHT22;7375;46.072;14.470;2022-12-20T12:17:06;23.90;43.60
14577;DHT22;7375;46.072;14.470;2022-12-20T12:19:33;23.90;43.30
14577;DHT22;7375;46.072;14.470;2022-12-20T12:22:06;23.90;43.30
14577;DHT22;7375;46.072;14.470;2022-12-20T12:24:41;23.80;43.40
14577;DHT22;7375;46.072;14.470;2022-12-20T12:27:11;23.80;43.50
14577;DHT22;7375;46.072;14.470;2022-12-20T12:29:40;23.70;43.50
14577;DHT22;7375;46.072;14.470;2022-12-20T12:32:08;23.70;43.60
14577;DHT22;7375;46.072;14.470;2022-12-20T12:34:40;23.70;43.70
14577;DHT22;7375;46.072;14.470;2022-12-20T12:37:24;23.60;43.70
14577;DHT22;7375;46.072;14.470;2022-12-20T12:40:03;23.50;43.70
14577;DHT22;7375;46.072;14.470;2022-12-20T12:42:51;23.40;44.00
14577;DHT22;7375;46.072;14.470;2022-12-20T12:45:24;23.30;44.40
14577;DHT22;7375;46.072;14.470;2022-12-20T12:47:52;23.20;44.80
14577;DHT22;7375;46.072;14.470;2022-12-20T12:50:23;23.10;45.30
14577;DHT22;7375;46.072;14.470;2022-12-20T12:52:51;23.00;45.50
14577;DHT22;7375;46.072;14.470;2022-12-20T12:55:38;23.00;45.50
14577;DHT22;7375;46.072;14.470;2022-12-20T13:00:55;22.90;46.00
14577;DHT22;7375;46.072;14.470;2022-12-20T13:03:34;22.80;46.10
14577;DHT22;7375;46.072;14.470;2022-12-20T13:08:46;22.70;47.10
14577;DHT22;7375;46.072;14.470;2022-12-20T13:11:14;22.60;46.90
14577;DHT22;7375;46.072;14.470;2022-12-20T13:16:36;22.60;46.60
14577;DHT22;7375;46.072;14.470;2022-12-20T13:19:13;22.50;46.60
14577;DHT22;7375;46.072;14.470;2022-12-20T13:21:41;22.50;46.60
14577;DHT22;7375;46.072;14.470;2022-12-20T13:27:15;22.40;47.00
14577;DHT22;7375;46.072;14.470;2022-12-20T13:29:58;22.30;47.00
14577;DHT22;7375;46.072;14.470;2022-12-20T13:40:51;22.10;47.50
14577;DHT22;7375;46.072;14.470;2022-12-20T13:43:23;22.10;47.60
14577;DHT22;7375;46.072;14.470;2022-12-20T13:45:52;22.00;47.70
14577;DHT22;7375;46.072;14.470;2022-12-20T13:48:21;22.00;47.70
14577;DHT22;7375;46.072;14.470;2022-12-20T13:50:51;21.90;47.70
14577;DHT22;7375;46.072;14.470;2022-12-20T13:53:19;21.90;47.80
14577;DHT22;7375;46.072;14.470;2022-12-20T13:55:46;21.90;47.90
14577;DHT22;7375;46.072;14.470;2022-12-20T13:58:17;21.80;48.00
14577;DHT22;7375;46.072;14.470;2022-12-20T14:00:44;21.80;48.10
14577;DHT22;7375;46.072;14.470;2022-12-20T14:03:18;21.70;48.10
14577;DHT22;7375;46.072;14.470;2022-12-20T14:05:45;21.70;48.20
14577;DHT22;7375;46.072;14.470;2022-12-20T14:08:15;21.60;48.20
14577;DHT22;7375;46.072;14.470;2022-12-20T14:10:43;21.60;48.30
14577;DHT22;7375;46.072;14.470;2022-12-20T14:13:18;21.60;48.40
14577;DHT22;7375;46.072;14.470;2022-12-20T14:15:45;21.50;48.40
14577;DHT22;7375;46.072;14.470;2022-12-20T14:18:15;21.50;49.10
14577;DHT22;7375;46.072;14.470;2022-12-20T14:20:42;21.50;50.10
14577;DHT22;7375;46.072;14.470;2022-12-20T14:23:10;21.40;49.60
14577;DHT22;7375;46.072;14.470;2022-12-20T14:25:40;21.40;49.70
14577;DHT22;7375;46.072;14.470;2022-12-20T14:28:11;21.40;49.60
14577;DHT22;7375;46.072;14.470;2022-12-20T14:30:43;21.30;49.60
14577;DHT22;7375;46.072;14.470;2022-12-20T14:33:19;21.30;49.80
14577;DHT22;7375;46.072;14.470;2022-12-20T14:35:47;21.30;49.80
14577;DHT22;7375;46.072;14.470;2022-12-20T14:38:19;21.20;49.90
14577;DHT22;7375;46.072;14.470;2022-12-20T14:40:46;21.20;50.00
14577;DHT22;7375;46.072;14.470;2022-12-20T14:43:13;21.20;50.10
14577;DHT22;7375;46.072;14.470;2022-12-20T14:45:42;21.10;50.10
14577;DHT22;7375;46.072;14.470;2022-12-20T14:48:13;21.10;50.20
14577;DHT22;7375;46.072;14.470;2022-12-20T14:50:44;21.10;50.60
14577;DHT22;7375;46.072;14.470;2022-12-20T14:53:16;21.10;51.80
14577;DHT22;7375;46.072;14.470;2022-12-20T14:55:44;21.10;51.40
14577;DHT22;7375;46.072;14.470;2022-12-20T14:58:22;21.00;51.20
14577;DHT22;7375;46.072;14.470;2022-12-20T15:00:55;21.00;51.20
14577;DHT22;7375;46.072;14.470;2022-12-20T15:03:23;21.00;51.30
14577;DHT22;7375;46.072;14.470;2022-12-20T15:05:50;21.00;51.30
14577;DHT22;7375;46.072;14.470;2022-12-20T15:08:18;20.90;51.20
14577;DHT22;7375;46.072;14.470;2022-12-20T15:10:49;20.90;51.30
14577;DHT22;7375;46.072;14.470;2022-12-20T15:13:17;20.90;51.40
14577;DHT22;7375;46.072;14.470;2022-12-20T15:15:44;20.90;51.40
14577;DHT22;7375;46.072;14.470;2022-12-20T15:18:13;20.80;51.40
14577;DHT22;7375;46.072;14.470;2022-12-20T15:20:40;20.80;51.40
14577;DHT22;7375;46.072;14.470;2022-12-20T15:23:10;20.80;51.50
14577;DHT22;7375;46.072;14.470;2022-12-20T15:25:38;20.80;52.20
14577;DHT22;7375;46.072;14.470;2022-12-20T15:28:09;20.80;52.10
14577;DHT22;7375;46.072;14.470;2022-12-20T15:30:37;20.70;51.80
14577;DHT22;7375;46.072;14.470;2022-12-20T15:33:04;20.70;51.80
14577;DHT22;7375;46.072;14.470;2022-12-20T15:35:33;20.70;51.70
14577;DHT22;7375;46.072;14.470;2022-12-20T15:38:00;20.70;51.80
14577;DHT22;7375;46.072;14.470;2022-12-20T15:40:27;20.70;51.80
14577;DHT22;7375;46.072;14.470;2022-12-20T15:42:55;20.70;52.00
14577;DHT22;7375;46.072;14.470;2022-12-20T15:45:22;20.70;52.20
14577;DHT22;7375;46.072;14.470;2022-12-20T15:47:49;20.70;52.20
14577;DHT22;7375;46.072;14.470;2022-12-20T15:50:16;20.70;52.40
14577;DHT22;7375;46.072;14.470;2022-12-20T15:52:44;20.70;52.50
14577;DHT22;7375;46.072;14.470;2022-12-20T15:55:12;20.60;52.40
14577;DHT22;7375;46.072;14.470;2022-12-20T15:57:39;20.60;52.60
14577;DHT22;7375;46.072;14.470;2022-12-20T16:00:06;20.60;52.60
14577;DHT22;7375;46.072;14.470;2022-12-20T16:02:33;20.60;52.60
14577;DHT22;7375;46.072;14.470;2022-12-20T16:05:00;20.60;52.70
14577;DHT22;7375;46.072;14.470;2022-12-20T16:07:27;20.60;52.70
14577;DHT22;7375;46.072;14.470;2022-12-20T16:09:55;20.60;52.80